createdAt,value
2023-03-18T00:01:35.045Z,58.30
2023-03-18T00:04:01.580Z,58.20
2023-03-18T00:06:28.080Z,58.20
2023-03-18T00:08:54.556Z,58.20
2023-03-18T00:11:21.035Z,58.30
2023-03-18T00:13:47.519Z,58.20
2023-03-18T00:16:14.049Z,58.30
2023-03-18T00:18:40.579Z,58.30
2023-03-18T00:21:07.075Z,58.20
2023-03-18T00:23:33.545Z,58.20
2023-03-18T00:26:00.032Z,58.20
2023-03-18T00:28:26.543Z,58.30
2023-03-18T00:30:53.029Z,58.30
2023-03-18T00:33:19.516Z,58.30
2023-03-18T00:35:46.036Z,58.40
2023-03-18T00:38:12.539Z,58.40
2023-03-18T00:40:39.040Z,58.30
2023-03-18T00:43:05.521Z,58.30
2023-03-18T00:45:32.037Z,58.30
2023-03-18T00:47:58.538Z,58.40
2023-03-18T00:50:25.046Z,58.30
2023-03-18T00:52:51.523Z,58.30
2023-03-18T00:55:18.028Z,58.30
2023-03-18T00:57:44.522Z,58.40
2023-03-18T01:00:11.002Z,58.40
2023-03-18T01:02:37.466Z,58.60
2023-03-18T01:05:03.991Z,58.50
2023-03-18T01:07:30.500Z,58.50
2023-03-18T01:09:56.976Z,58.50
2023-03-18T01:12:23.445Z,58.50
2023-03-18T01:14:49.943Z,58.50
2023-03-18T01:17:16.434Z,58.60
2023-03-18T01:19:42.965Z,58.60
2023-03-18T01:22:09.469Z,58.60
2023-03-18T01:24:35.981Z,58.70
2023-03-18T01:27:02.462Z,58.70
2023-03-18T01:29:28.957Z,59.00
2023-03-18T01:31:55.474Z,58.70
2023-03-18T01:34:22.019Z,58.80
2023-03-18T01:36:48.492Z,58.70
2023-03-18T01:39:14.997Z,58.70
2023-03-18T01:41:41.500Z,58.90
2023-03-18T01:44:08.024Z,58.70
2023-03-18T01:46:34.504Z,58.70
2023-03-18T01:49:01.026Z,58.70
2023-03-18T01:51:27.499Z,58.70
2023-03-18T01:53:54.019Z,59.30
2023-03-18T01:56:20.513Z,58.70
2023-03-18T01:58:46.995Z,58.70
2023-03-18T02:01:13.531Z,58.70
2023-03-18T02:03:40.050Z,58.90
2023-03-18T02:06:06.579Z,58.70
2023-03-18T02:08:33.093Z,58.70
2023-03-18T02:10:59.592Z,58.80
2023-03-18T02:13:26.077Z,58.80
2023-03-18T02:15:52.568Z,58.80
2023-03-18T02:18:19.089Z,58.90
2023-03-18T02:20:45.569Z,59.00
2023-03-18T02:23:12.097Z,59.00
2023-03-18T02:25:38.605Z,59.30
2023-03-18T02:28:05.124Z,59.10
2023-03-18T02:30:32.059Z,59.00
2023-03-18T02:32:58.838Z,59.00
2023-03-18T02:35:25.471Z,58.90
2023-03-18T02:37:52.013Z,58.90
2023-03-18T02:40:18.480Z,58.80
2023-03-18T02:42:44.966Z,59.00
2023-03-18T02:45:11.452Z,58.90
2023-03-18T02:47:37.936Z,58.90
2023-03-18T02:50:04.432Z,58.90
2023-03-18T02:52:30.895Z,59.70
2023-03-18T02:55:01.958Z,59.40
2023-03-18T02:57:28.440Z,59.20
2023-03-18T02:59:54.933Z,59.00
2023-03-18T03:02:21.502Z,59.10
2023-03-18T03:04:48.004Z,59.10
2023-03-18T03:07:14.495Z,59.20
2023-03-18T03:09:41.051Z,59.40
2023-03-18T03:12:07.532Z,59.30
2023-03-18T03:14:34.020Z,59.10
2023-03-18T03:17:00.503Z,59.10
2023-03-18T03:19:27.002Z,59.00
2023-03-18T03:21:53.489Z,59.20
2023-03-18T03:24:19.975Z,59.30
2023-03-18T03:26:46.441Z,59.10
2023-03-18T03:29:12.938Z,59.20
2023-03-18T03:31:39.432Z,59.30
2023-03-18T03:34:05.918Z,59.10
2023-03-18T03:36:32.393Z,59.20
2023-03-18T03:38:58.895Z,59.70
2023-03-18T03:41:25.398Z,59.30
2023-03-18T03:43:51.879Z,59.20
2023-03-18T03:46:18.405Z,59.40
2023-03-18T03:48:44.951Z,59.30
2023-03-18T03:51:11.435Z,59.50
2023-03-18T03:53:37.921Z,59.50
2023-03-18T03:56:04.408Z,59.40
2023-03-18T03:58:30.919Z,59.50
2023-03-18T04:00:57.383Z,59.60
2023-03-18T04:03:23.879Z,59.80
2023-03-18T04:05:50.374Z,59.50
2023-03-18T04:08:16.887Z,59.50
2023-03-18T04:10:43.383Z,59.60
2023-03-18T04:13:09.878Z,59.70
2023-03-18T04:15:36.436Z,59.80
2023-03-18T04:18:02.932Z,59.90
2023-03-18T04:20:29.616Z,59.60
2023-03-18T04:22:56.375Z,59.60
2023-03-18T04:25:22.845Z,59.60
2023-03-18T04:27:49.332Z,59.90
2023-03-18T04:30:15.812Z,60.60
2023-03-18T04:32:42.304Z,59.90
2023-03-18T04:35:08.807Z,59.70
2023-03-18T04:37:37.198Z,60.70
2023-03-18T04:40:03.950Z,60.00
2023-03-18T04:42:30.445Z,59.90
2023-03-18T04:44:56.929Z,59.80
2023-03-18T04:47:23.362Z,59.80
2023-03-18T04:49:49.847Z,59.80
2023-03-18T04:52:16.320Z,60.00
2023-03-18T04:54:42.859Z,59.80
2023-03-18T04:57:09.523Z,59.80
2023-03-18T04:59:36.006Z,60.70
2023-03-18T05:02:02.488Z,60.50
2023-03-18T05:04:29.002Z,60.00
2023-03-18T05:06:55.547Z,59.90
2023-03-18T05:09:22.068Z,59.90
2023-03-18T05:11:48.569Z,59.70
2023-03-18T05:14:15.067Z,60.20
2023-03-18T05:16:41.569Z,60.10
2023-03-18T05:19:08.060Z,59.90
2023-03-18T05:21:34.528Z,60.10
2023-03-18T05:24:01.013Z,60.00
2023-03-18T05:26:27.498Z,60.10
2023-03-18T05:28:53.984Z,60.50
2023-03-18T05:31:20.502Z,60.10
2023-03-18T05:33:47.039Z,60.70
2023-03-18T05:36:13.573Z,60.30
2023-03-18T05:38:40.098Z,60.10
2023-03-18T05:41:06.573Z,60.60
2023-03-18T05:43:38.103Z,60.30
2023-03-18T05:46:04.609Z,60.60
2023-03-18T05:48:31.136Z,60.50
2023-03-18T05:50:57.607Z,60.50
2023-03-18T05:53:24.106Z,60.10
2023-03-18T05:55:50.591Z,60.10
2023-03-18T05:58:17.094Z,60.20
2023-03-18T06:00:43.604Z,60.30
2023-03-18T06:03:10.143Z,60.30
2023-03-18T06:05:36.666Z,61.70
2023-03-18T06:08:03.225Z,60.50
2023-03-18T06:10:29.712Z,62.00
2023-03-18T06:12:56.238Z,61.80
2023-03-18T06:15:22.724Z,61.00
2023-03-18T06:17:49.204Z,60.90
2023-03-18T06:20:15.697Z,61.30
2023-03-18T06:22:42.187Z,61.00
2023-03-18T06:25:08.685Z,60.90
2023-03-18T06:27:35.174Z,61.40
2023-03-18T06:30:01.900Z,61.60
2023-03-18T06:32:28.479Z,60.70
2023-03-18T06:34:55.007Z,60.80
2023-03-18T06:37:21.479Z,61.00
2023-03-18T06:39:47.960Z,60.80
2023-03-18T06:42:14.433Z,60.70
2023-03-18T06:44:40.949Z,61.80
2023-03-18T06:47:07.427Z,61.60
2023-03-18T06:49:33.902Z,60.80
2023-03-18T06:52:00.367Z,62.40
2023-03-18T06:54:26.868Z,61.10
2023-03-18T06:56:53.363Z,60.80
2023-03-18T06:59:19.879Z,61.70
2023-03-18T07:01:46.396Z,61.70
2023-03-18T07:04:12.937Z,60.80
2023-03-18T07:06:39.481Z,61.20
2023-03-18T07:09:06.007Z,60.80
2023-03-18T07:11:32.485Z,60.80
2023-03-18T07:13:58.960Z,60.80
2023-03-18T07:16:25.471Z,61.30
2023-03-18T07:18:51.967Z,61.20
2023-03-18T07:21:18.457Z,60.90
2023-03-18T07:23:45.190Z,61.10
2023-03-18T07:26:11.677Z,60.90
2023-03-18T07:28:38.233Z,61.00
2023-03-18T07:31:04.726Z,61.10
2023-03-18T07:33:31.230Z,61.00
2023-03-18T07:35:57.780Z,60.70
2023-03-18T07:38:24.329Z,60.90
2023-03-18T07:40:50.817Z,60.90
2023-03-18T07:43:17.337Z,61.00
2023-03-18T07:45:43.845Z,61.50
2023-03-18T07:48:10.349Z,61.60
2023-03-18T07:50:36.831Z,62.00
2023-03-18T07:53:03.361Z,61.30
2023-03-18T07:55:29.967Z,61.40
2023-03-18T07:57:56.687Z,62.60
2023-03-18T08:00:23.181Z,62.40
2023-03-18T08:02:49.666Z,61.10
2023-03-18T08:05:16.373Z,61.00
2023-03-18T08:07:42.978Z,61.00
2023-03-18T08:10:09.493Z,61.00
2023-03-18T08:12:51.249Z,62.00
2023-03-18T08:15:18.368Z,61.40
2023-03-18T08:17:44.864Z,61.60
2023-03-18T08:20:11.353Z,62.00
2023-03-18T08:22:37.822Z,62.70
2023-03-18T08:25:04.305Z,61.30
2023-03-18T08:27:30.776Z,63.80
2023-03-18T08:29:57.245Z,61.80
2023-03-18T08:32:23.725Z,61.40
2023-03-18T08:34:50.220Z,61.50
2023-03-18T08:37:16.797Z,61.40
2023-03-18T08:39:43.270Z,61.30
2023-03-18T08:42:09.749Z,63.50
2023-03-18T08:44:36.246Z,61.90
2023-03-18T08:47:02.739Z,61.60
2023-03-18T08:49:29.251Z,61.70
2023-03-18T08:51:55.721Z,62.30
2023-03-18T08:54:22.198Z,62.00
2023-03-18T08:56:48.688Z,61.60
2023-03-18T08:59:15.205Z,62.10
2023-03-18T09:01:41.750Z,61.80
2023-03-18T09:04:08.268Z,62.50
2023-03-18T09:06:38.436Z,62.20
2023-03-18T09:09:04.924Z,62.70
2023-03-18T09:11:31.390Z,62.00
2023-03-18T09:13:57.882Z,64.40
2023-03-18T09:16:24.422Z,63.80
2023-03-18T09:18:50.934Z,64.70
2023-03-18T09:21:17.419Z,63.20
2023-03-18T09:23:43.911Z,65.10
2023-03-18T09:26:10.423Z,64.50
2023-03-18T09:28:36.921Z,66.00
2023-03-18T09:31:03.496Z,65.50
2023-03-18T09:33:30.028Z,64.30
2023-03-18T09:35:56.655Z,65.10
2023-03-18T09:38:23.198Z,64.30
2023-03-18T09:40:49.689Z,65.90
2023-03-18T09:43:16.217Z,65.20
2023-03-18T09:45:42.726Z,66.70
2023-03-18T09:48:09.243Z,64.60
2023-03-18T09:50:35.706Z,66.10
2023-03-18T09:53:02.238Z,64.20
2023-03-18T09:55:28.732Z,66.20
2023-03-18T09:57:55.228Z,64.80
2023-03-18T10:00:21.729Z,66.40
2023-03-18T10:02:48.209Z,65.00
2023-03-18T10:05:14.710Z,66.80
2023-03-18T10:07:41.184Z,65.80
2023-03-18T10:10:07.668Z,66.20
2023-03-18T10:12:34.158Z,64.00
2023-03-18T10:15:00.627Z,66.90
2023-03-18T10:17:27.097Z,66.00
2023-03-18T10:19:53.603Z,66.50
2023-03-18T10:22:20.084Z,66.30
2023-03-18T10:24:46.571Z,66.60
2023-03-18T10:27:13.038Z,66.50
2023-03-18T10:29:39.527Z,65.80
2023-03-18T10:32:06.016Z,67.40
2023-03-18T10:34:32.502Z,67.30
2023-03-18T10:36:58.991Z,67.30
2023-03-18T10:39:25.484Z,67.60
2023-03-18T10:41:51.968Z,66.80
2023-03-18T10:44:18.495Z,67.50
2023-03-18T10:46:45.103Z,67.80
2023-03-18T10:49:11.657Z,68.00
2023-03-18T10:51:38.306Z,68.10
2023-03-18T10:54:04.783Z,67.70
2023-03-18T10:56:31.261Z,67.60
2023-03-18T10:58:57.733Z,68.20
2023-03-18T11:01:24.245Z,68.00
2023-03-18T11:03:50.748Z,68.30
2023-03-18T11:06:17.243Z,68.20
2023-03-18T11:08:43.741Z,68.20
2023-03-18T11:11:10.231Z,68.20
2023-03-18T11:13:36.735Z,68.00
2023-03-18T11:16:03.240Z,68.30
2023-03-18T11:18:29.758Z,68.30
2023-03-18T11:20:56.232Z,68.20
2023-03-18T11:23:22.736Z,68.80
2023-03-18T11:25:49.226Z,68.60
2023-03-18T11:28:15.739Z,68.60
2023-03-18T11:30:42.408Z,69.10
2023-03-18T11:33:09.068Z,69.10
2023-03-18T11:35:35.637Z,69.00
2023-03-18T11:38:02.186Z,69.00
2023-03-18T11:40:28.678Z,69.00
2023-03-18T11:42:55.168Z,69.20
2023-03-18T11:45:21.689Z,69.00
2023-03-18T11:47:48.270Z,69.00
2023-03-18T11:50:14.750Z,70.00
2023-03-18T11:52:41.281Z,69.20
2023-03-18T11:55:07.766Z,69.00
2023-03-18T11:57:34.261Z,69.10
2023-03-18T12:00:00.780Z,69.20
2023-03-18T12:02:27.297Z,69.50
2023-03-18T12:04:53.892Z,69.50
2023-03-18T12:07:20.510Z,69.80
2023-03-18T12:09:47.003Z,69.70
2023-03-18T12:12:13.510Z,69.80
2023-03-18T12:14:40.013Z,69.90
2023-03-18T12:17:06.521Z,70.00
2023-03-18T12:19:35.732Z,70.30
2023-03-18T12:22:02.189Z,70.70
2023-03-18T12:24:28.671Z,70.10
2023-03-18T12:26:55.174Z,70.00
2023-03-18T12:29:21.665Z,70.10
2023-03-18T12:31:48.180Z,70.10
2023-03-18T12:34:15.085Z,69.90
2023-03-18T12:36:41.600Z,70.10
2023-03-18T12:39:08.088Z,70.00
2023-03-18T12:41:37.063Z,70.40
2023-03-18T12:44:03.713Z,70.50
2023-03-18T12:46:30.202Z,70.00
2023-03-18T12:48:56.687Z,70.40
2023-03-18T12:51:23.186Z,70.20
2023-03-18T12:53:49.670Z,70.30
2023-03-18T12:56:16.158Z,70.30
2023-03-18T12:58:42.636Z,70.30
2023-03-18T13:01:09.167Z,70.40
2023-03-18T13:03:35.738Z,70.10
2023-03-18T13:06:02.226Z,70.60
2023-03-18T13:08:28.722Z,70.20
2023-03-18T13:10:55.224Z,70.10
2023-03-18T13:13:21.694Z,70.60
2023-03-18T13:15:48.172Z,70.60
2023-03-18T13:18:14.682Z,70.30
2023-03-18T13:20:41.202Z,70.50
2023-03-18T13:23:07.681Z,70.40
2023-03-18T13:25:34.363Z,70.60
2023-03-18T13:28:01.019Z,70.40
2023-03-18T13:30:27.496Z,70.00
2023-03-18T13:32:54.011Z,70.20
2023-03-18T13:35:20.565Z,70.60
2023-03-18T13:37:47.050Z,71.10
2023-03-18T13:40:13.534Z,70.60
2023-03-18T13:42:40.030Z,70.50
2023-03-18T13:45:06.513Z,70.60
2023-03-18T13:47:33.022Z,70.60
2023-03-18T13:49:59.544Z,70.60
2023-03-18T13:52:26.029Z,70.50
2023-03-18T13:54:52.517Z,70.40
2023-03-18T13:57:18.982Z,70.60
2023-03-18T13:59:45.472Z,70.50
2023-03-18T14:02:11.968Z,70.30
2023-03-18T14:04:38.463Z,70.30
2023-03-18T14:07:04.959Z,70.30
2023-03-18T14:09:31.452Z,70.50
2023-03-18T14:11:57.952Z,70.50
2023-03-18T14:14:24.446Z,70.70
2023-03-18T14:16:50.928Z,70.80
2023-03-18T14:19:17.420Z,70.70
2023-03-18T14:21:43.919Z,70.70
2023-03-18T14:24:10.425Z,70.30
2023-03-18T14:26:36.899Z,70.40
2023-03-18T14:29:03.439Z,70.50
2023-03-18T14:31:29.993Z,70.60
2023-03-18T14:33:56.546Z,70.70
2023-03-18T14:36:23.031Z,70.60
2023-03-18T14:38:49.575Z,70.80
2023-03-18T14:41:16.093Z,70.70
2023-03-18T14:43:42.595Z,70.70
2023-03-18T14:46:09.214Z,70.70
2023-03-18T14:48:35.746Z,70.80
2023-03-18T14:51:02.220Z,70.70
2023-03-18T14:53:28.704Z,70.40
2023-03-18T14:55:57.049Z,70.60
2023-03-18T14:58:23.753Z,70.50
2023-03-18T15:00:50.243Z,70.60
2023-03-18T15:03:16.827Z,70.70
2023-03-18T15:05:43.346Z,70.60
2023-03-18T15:08:09.840Z,71.00
2023-03-18T15:10:36.353Z,70.90
2023-03-18T15:13:02.871Z,71.00
2023-03-18T15:15:29.351Z,71.10
2023-03-18T15:17:55.872Z,71.10
2023-03-18T15:20:22.359Z,70.90
2023-03-18T15:22:48.876Z,70.90
2023-03-18T15:25:15.352Z,71.10
2023-03-18T15:27:41.828Z,71.10
2023-03-18T15:30:08.308Z,71.10
2023-03-18T15:32:34.822Z,71.10
2023-03-18T15:35:01.305Z,71.30
2023-03-18T15:37:27.773Z,71.10
2023-03-18T15:39:56.599Z,71.00
2023-03-18T15:42:23.123Z,71.10
2023-03-18T15:44:49.631Z,71.40
2023-03-18T15:47:16.116Z,71.40
2023-03-18T15:49:42.621Z,71.40
2023-03-18T15:52:09.110Z,71.20
2023-03-18T15:54:35.603Z,71.10
2023-03-18T15:57:02.096Z,71.20
2023-03-18T15:59:28.592Z,71.20
2023-03-18T16:01:55.078Z,71.20
2023-03-18T16:04:21.567Z,71.20
2023-03-18T16:06:48.070Z,71.10
2023-03-18T16:09:14.568Z,71.20
2023-03-18T16:11:41.046Z,71.20
2023-03-18T16:14:07.498Z,71.30
2023-03-18T16:16:34.034Z,71.50
2023-03-18T16:19:00.556Z,71.20
2023-03-18T16:21:27.052Z,71.20
2023-03-18T16:23:53.525Z,71.10
2023-03-18T16:26:20.003Z,71.10
2023-03-18T16:28:48.309Z,71.10
2023-03-18T16:31:14.990Z,71.10
2023-03-18T16:33:41.561Z,71.30
2023-03-18T16:36:08.086Z,71.30
2023-03-18T16:38:34.588Z,71.40
2023-03-18T16:41:01.052Z,71.10
2023-03-18T16:43:27.564Z,71.30
2023-03-18T16:45:54.079Z,71.10
2023-03-18T16:48:20.584Z,71.40
2023-03-18T16:50:47.073Z,71.10
2023-03-18T16:53:13.591Z,71.10
2023-03-18T16:55:40.077Z,71.00
2023-03-18T16:58:06.596Z,70.90
2023-03-18T17:00:33.080Z,70.50
2023-03-18T17:02:59.594Z,69.90
2023-03-18T17:05:26.086Z,69.20
2023-03-18T17:07:52.626Z,68.90
2023-03-18T17:10:19.161Z,68.00
2023-03-18T17:12:45.679Z,67.10
2023-03-18T17:15:12.159Z,66.50
2023-03-18T17:17:38.642Z,66.20
2023-03-18T17:20:05.127Z,66.40
2023-03-18T17:22:31.630Z,66.10
2023-03-18T17:24:58.132Z,66.00
2023-03-18T17:27:24.614Z,66.10
2023-03-18T17:29:51.129Z,65.90
2023-03-18T17:32:17.621Z,66.10
2023-03-18T17:34:44.088Z,66.10
2023-03-18T17:37:10.637Z,66.00
2023-03-18T17:39:37.182Z,66.10
2023-03-18T17:42:03.668Z,66.00
2023-03-18T17:44:30.452Z,66.00
2023-03-18T17:46:56.990Z,66.00
2023-03-18T17:49:23.471Z,66.00
2023-03-18T17:51:49.964Z,66.00
2023-03-18T17:54:16.458Z,66.00
2023-03-18T17:56:42.935Z,66.00
2023-03-18T17:59:09.431Z,66.00
2023-03-18T18:01:35.923Z,66.00
2023-03-18T18:04:02.485Z,65.90
2023-03-18T18:06:28.982Z,66.00
2023-03-18T18:08:55.479Z,65.90
2023-03-18T18:11:21.989Z,66.00
2023-03-18T18:13:48.532Z,66.10
2023-03-18T18:16:15.082Z,66.10
2023-03-18T18:18:41.675Z,66.10
2023-03-18T18:21:08.155Z,66.20
2023-03-18T18:23:34.682Z,66.20
2023-03-18T18:26:01.185Z,66.30
2023-03-18T18:28:27.710Z,66.30
2023-03-18T18:30:54.211Z,66.30
2023-03-18T18:33:20.736Z,67.00
2023-03-18T18:35:48.364Z,66.20
2023-03-18T18:38:14.904Z,66.10
2023-03-18T18:40:41.388Z,66.10
2023-03-18T18:43:07.837Z,66.10
2023-03-18T18:45:34.689Z,66.10
2023-03-18T18:48:01.472Z,66.40
2023-03-18T18:50:27.960Z,66.30
2023-03-18T18:52:54.456Z,66.50
2023-03-18T18:55:20.918Z,66.50
2023-03-18T18:57:47.435Z,66.50
2023-03-18T19:00:13.921Z,66.50
2023-03-18T19:02:40.424Z,66.60
2023-03-18T19:05:06.895Z,66.30
2023-03-18T19:07:33.413Z,66.30
2023-03-18T19:09:59.909Z,66.40
2023-03-18T19:12:26.406Z,66.20
2023-03-18T19:14:52.929Z,66.30
2023-03-18T19:17:19.426Z,66.30
2023-03-18T19:19:45.917Z,66.20
2023-03-18T19:22:12.409Z,66.10
2023-03-18T19:24:38.936Z,66.10
2023-03-18T19:27:05.439Z,66.30
2023-03-18T19:29:31.910Z,66.10
2023-03-18T19:31:58.471Z,66.00
2023-03-18T19:34:24.972Z,66.20
2023-03-18T19:36:51.439Z,66.10
2023-03-18T19:39:17.924Z,66.10
2023-03-18T19:41:44.414Z,66.10
2023-03-18T19:44:10.921Z,66.20
2023-03-18T19:46:37.390Z,66.10
2023-03-18T19:49:03.902Z,66.30
2023-03-18T19:51:30.384Z,66.30
2023-03-18T19:53:56.999Z,66.10
2023-03-18T19:56:23.481Z,66.40
2023-03-18T19:58:50.023Z,66.30
2023-03-18T20:01:16.588Z,66.30
2023-03-18T20:03:43.142Z,66.10
2023-03-18T20:06:09.675Z,66.40
2023-03-18T20:08:36.192Z,66.50
2023-03-18T20:11:02.689Z,67.30
2023-03-18T20:13:29.197Z,66.50
2023-03-18T20:15:55.681Z,66.50
2023-03-18T20:18:22.197Z,66.30
2023-03-18T20:20:48.672Z,66.40
2023-03-18T20:23:15.209Z,66.40
2023-03-18T20:25:41.707Z,66.50
2023-03-18T20:28:08.233Z,66.40
2023-03-18T20:30:34.719Z,66.40
2023-03-18T20:33:01.269Z,66.40
2023-03-18T20:35:27.776Z,66.40
2023-03-18T20:37:54.256Z,66.30
2023-03-18T20:40:20.743Z,66.40
2023-03-18T20:42:47.221Z,66.30
2023-03-18T20:45:15.538Z,66.60
2023-03-18T20:47:42.201Z,66.40
2023-03-18T20:50:08.684Z,66.30
2023-03-18T20:52:35.188Z,66.10
2023-03-18T20:55:02.327Z,66.10
2023-03-18T20:57:28.825Z,66.10
2023-03-18T20:59:55.326Z,66.20
2023-03-18T21:02:21.812Z,66.10
2023-03-18T21:04:48.243Z,66.00
2023-03-18T21:07:14.728Z,66.10
2023-03-18T21:09:41.198Z,66.10
2023-03-18T21:12:07.673Z,66.10
2023-03-18T21:14:34.153Z,66.10
2023-03-18T21:17:00.748Z,66.10
2023-03-18T21:19:27.267Z,66.10
2023-03-18T21:21:53.753Z,66.10
2023-03-18T21:24:20.259Z,66.30
2023-03-18T21:27:03.061Z,66.10
2023-03-18T21:29:30.140Z,66.20
2023-03-18T21:31:56.610Z,66.30
2023-03-18T21:34:23.108Z,66.30
2023-03-18T21:36:49.600Z,66.50
2023-03-18T21:39:16.090Z,66.20
2023-03-18T21:41:42.565Z,66.30
2023-03-18T21:44:09.070Z,66.50
2023-03-18T21:46:35.688Z,66.40
2023-03-18T21:49:02.317Z,66.30
2023-03-18T21:51:38.729Z,66.40
2023-03-18T21:54:06.316Z,66.50
2023-03-18T21:56:32.807Z,66.50
2023-03-18T21:58:59.332Z,66.40
2023-03-18T22:01:25.864Z,66.40
2023-03-18T22:03:52.393Z,66.40
2023-03-18T22:06:18.902Z,66.50
2023-03-18T22:08:45.397Z,66.50
2023-03-18T22:11:11.883Z,66.30
2023-03-18T22:13:38.379Z,66.50
2023-03-18T22:16:04.960Z,66.40
2023-03-18T22:18:31.531Z,66.30
2023-03-18T22:20:58.024Z,66.30
2023-03-18T22:23:24.545Z,66.20
2023-03-18T22:25:51.017Z,66.20
2023-03-18T22:28:17.555Z,66.30
2023-03-18T22:30:44.058Z,66.30
2023-03-18T22:33:10.607Z,66.10
2023-03-18T22:35:37.499Z,66.50
2023-03-18T22:38:04.157Z,66.40
2023-03-18T22:40:30.635Z,66.60
2023-03-18T22:42:57.130Z,66.60
2023-03-18T22:45:23.592Z,66.20
2023-03-18T22:47:50.081Z,66.30
2023-03-18T22:50:16.555Z,66.10
2023-03-18T22:52:43.086Z,66.30
2023-03-18T22:55:09.572Z,66.10
2023-03-18T22:57:36.049Z,66.20
2023-03-18T23:00:02.539Z,66.40
2023-03-18T23:02:29.071Z,66.00
2023-03-18T23:04:55.564Z,67.30
2023-03-18T23:07:22.062Z,66.40
2023-03-18T23:09:56.505Z,66.30
2023-03-18T23:12:23.487Z,66.30
2023-03-18T23:14:49.978Z,66.10
2023-03-18T23:17:16.468Z,66.00
2023-03-18T23:19:42.950Z,66.10
2023-03-18T23:22:09.414Z,66.30
2023-03-18T23:24:35.904Z,66.40
2023-03-18T23:27:02.586Z,66.30
2023-03-18T23:29:29.072Z,67.10
2023-03-18T23:31:55.552Z,66.50
2023-03-18T23:34:22.055Z,66.50
2023-03-18T23:36:48.588Z,66.60
2023-03-18T23:39:15.088Z,66.40
2023-03-18T23:41:41.566Z,66.30
2023-03-18T23:44:08.093Z,66.70
2023-03-18T23:46:34.625Z,66.60
2023-03-18T23:49:01.174Z,66.40
2023-03-18T23:51:27.659Z,66.40
2023-03-18T23:53:54.166Z,66.80
2023-03-18T23:56:20.658Z,66.80
2023-03-18T23:58:47.182Z,67.10
